createdAt,value
2016-04-22T00:00:13.379Z,0
2016-04-22T00:01:26.822Z,0
2016-04-22T00:02:12.916Z,0
2016-04-22T00:03:27.062Z,0
2016-04-22T00:04:12.946Z,0
2016-04-22T00:06:12.311Z,0
2016-04-22T00:07:13.142Z,0
2016-04-22T00:08:13.129Z,0
2016-04-22T00:09:12.959Z,0
2016-04-22T00:10:12.775Z,0
2016-04-22T00:11:12.715Z,0
2016-04-22T00:12:12.967Z,0
2016-04-22T00:13:12.736Z,0
2016-04-22T00:14:26.836Z,0
2016-04-22T00:15:12.726Z,0
2016-04-22T00:16:12.744Z,0
2016-04-22T00:17:12.966Z,0
2016-04-22T00:18:12.968Z,0
2016-04-22T00:19:12.941Z,0
2016-04-22T00:20:12.755Z,0
2016-04-22T00:21:12.961Z,0
2016-04-22T00:22:12.994Z,0
2016-04-22T00:23:12.935Z,0
2016-04-22T00:24:13.422Z,0
2016-04-22T00:25:12.941Z,0
2016-04-22T00:26:13.146Z,0
2016-04-22T00:27:12.758Z,0
2016-04-22T00:28:12.730Z,0
2016-04-22T00:29:26.829Z,0
2016-04-22T00:30:12.766Z,0
2016-04-22T00:31:12.723Z,0
2016-04-22T00:32:12.241Z,0
2016-04-22T00:33:12.946Z,0
2016-04-22T00:34:12.777Z,0
2016-04-22T00:35:12.764Z,0
2016-04-22T00:36:12.940Z,0
2016-04-22T00:37:12.724Z,0
2016-04-22T00:38:27.027Z,0
2016-04-22T00:39:12.261Z,0
2016-04-22T00:40:12.747Z,0
2016-04-22T00:41:12.969Z,0
2016-04-22T00:42:13.003Z,0
2016-04-22T00:43:12.740Z,0
2016-04-22T00:44:27.246Z,0
2016-04-22T00:45:12.918Z,0
2016-04-22T00:46:13.388Z,0
2016-04-22T00:47:12.766Z,0
2016-04-22T00:48:12.722Z,0
2016-04-22T00:49:12.990Z,0
2016-04-22T00:50:12.789Z,0
2016-04-22T00:51:13.356Z,0
2016-04-22T00:52:13.014Z,0
2016-04-22T00:53:12.736Z,0
2016-04-22T00:54:13.192Z,0
2016-04-22T00:55:12.788Z,0
2016-04-22T00:56:12.790Z,0
2016-04-22T00:57:12.746Z,0
2016-04-22T00:58:12.780Z,0
2016-04-22T00:59:27.036Z,0
2016-04-22T01:00:12.723Z,0
2016-04-22T01:01:12.710Z,0
2016-04-22T01:02:12.775Z,0
2016-04-22T01:03:12.996Z,0
2016-04-22T01:04:12.749Z,0
2016-04-22T01:05:12.783Z,0
2016-04-22T01:06:12.802Z,0
2016-04-22T01:07:12.757Z,0
2016-04-22T01:08:13.182Z,0
2016-04-22T01:09:12.919Z,0
2016-04-22T01:10:12.984Z,0
2016-04-22T01:11:27.224Z,0
2016-04-22T01:12:12.927Z,0
2016-04-22T01:13:26.838Z,0
2016-04-22T01:14:12.979Z,0
2016-04-22T01:15:12.763Z,0
2016-04-22T01:16:26.862Z,0
2016-04-22T01:17:12.925Z,0
2016-04-22T01:18:12.724Z,0
2016-04-22T01:19:12.587Z,0
2016-04-22T01:20:12.964Z,0
2016-04-22T01:21:26.829Z,0
2016-04-22T01:22:12.751Z,0
2016-04-22T01:23:12.988Z,0
2016-04-22T01:24:12.912Z,0
2016-04-22T01:25:12.728Z,0
2016-04-22T01:26:26.327Z,0
2016-04-22T01:27:12.998Z,0
2016-04-22T01:28:12.455Z,0
2016-04-22T01:30:12.663Z,0
2016-04-22T01:32:12.231Z,0
2016-04-22T01:33:12.749Z,0
2016-04-22T01:34:26.817Z,0
2016-04-22T01:35:13.114Z,0
2016-04-22T01:36:12.727Z,0
2016-04-22T01:37:12.979Z,0
2016-04-22T01:38:12.778Z,0
2016-04-22T01:39:12.735Z,0
2016-04-22T01:40:12.721Z,0
2016-04-22T01:41:27.430Z,0
2016-04-22T01:42:13.118Z,0
2016-04-22T01:43:12.730Z,0
2016-04-22T01:44:12.748Z,0
2016-04-22T01:45:12.735Z,0
2016-04-22T01:46:12.753Z,0
2016-04-22T01:47:12.209Z,0
2016-04-22T01:48:12.696Z,0
2016-04-22T01:49:12.715Z,0
2016-04-22T01:50:12.701Z,0
2016-04-22T01:51:12.892Z,0
2016-04-22T01:52:12.691Z,0
2016-04-22T01:53:12.928Z,0
2016-04-22T01:54:12.915Z,0
2016-04-22T01:55:12.543Z,0
2016-04-22T01:56:12.687Z,0
2016-04-22T01:57:12.923Z,0
2016-04-22T01:58:12.926Z,0
2016-04-22T01:59:13.116Z,0
2016-04-22T02:00:12.681Z,0
2016-04-22T02:01:12.731Z,0
2016-04-22T02:02:12.687Z,0
2016-04-22T02:03:12.549Z,0
2016-04-22T02:04:26.992Z,0
2016-04-22T02:05:12.258Z,0
2016-04-22T02:06:12.213Z,0
2016-04-22T02:07:26.813Z,0
2016-04-22T02:08:12.719Z,0
2016-04-22T02:09:12.206Z,0
2016-04-22T02:10:12.677Z,0
2016-04-22T02:11:12.899Z,0
2016-04-22T02:12:12.714Z,0
2016-04-22T02:13:12.872Z,0
2016-04-22T02:14:12.672Z,0
2016-04-22T02:15:12.675Z,0
2016-04-22T02:16:12.459Z,0
2016-04-22T02:17:12.680Z,0
2016-04-22T02:18:12.652Z,0
2016-04-22T02:19:12.670Z,0
2016-04-22T02:20:12.688Z,0
2016-04-22T02:21:12.676Z,0
2016-04-22T02:22:12.663Z,0
2016-04-22T02:23:12.665Z,0
2016-04-22T02:24:12.652Z,0
2016-04-22T02:25:12.670Z,0
2016-04-22T02:26:12.673Z,0
2016-04-22T02:27:12.707Z,0
2016-04-22T02:28:12.179Z,0
2016-04-22T02:29:12.650Z,0
2016-04-22T02:30:12.637Z,0
2016-04-22T02:31:12.703Z,0
2016-04-22T02:32:12.845Z,0
2016-04-22T02:33:12.911Z,0
2016-04-22T02:34:12.694Z,0
2016-04-22T02:35:12.510Z,0
2016-04-22T02:36:12.153Z,0
2016-04-22T02:37:12.656Z,0
2016-04-22T02:38:26.958Z,0
2016-04-22T02:39:12.661Z,0
2016-04-22T02:40:12.883Z,0
2016-04-22T02:41:11.885Z,0
2016-04-22T02:42:26.750Z,0
2016-04-22T02:43:12.641Z,0
2016-04-22T02:45:13.052Z,0
2016-04-22T02:46:12.665Z,0
2016-04-22T02:47:11.901Z,0
2016-04-22T02:48:12.857Z,0
2016-04-22T02:49:12.641Z,0
2016-04-22T02:50:12.628Z,0
2016-04-22T02:51:12.646Z,0
2016-04-22T02:52:12.665Z,0
2016-04-22T02:53:12.855Z,0
2016-04-22T02:54:12.670Z,0
2016-04-22T02:55:12.626Z,0
2016-04-22T02:56:12.706Z,0
2016-04-22T02:57:12.632Z,0
2016-04-22T02:58:12.635Z,0
2016-04-22T02:59:12.620Z,0
2016-04-22T03:00:12.624Z,0
2016-04-22T03:01:12.876Z,0
2016-04-22T03:02:12.629Z,0
2016-04-22T03:03:13.039Z,0
2016-04-22T03:04:12.588Z,0
2016-04-22T03:05:13.028Z,0
2016-04-22T03:06:12.608Z,0
2016-04-22T03:07:12.596Z,0
2016-04-22T03:08:12.661Z,0
2016-04-22T03:09:12.601Z,0
2016-04-22T03:10:12.619Z,0
2016-04-22T03:11:12.622Z,0
2016-04-22T03:12:12.156Z,0
2016-04-22T03:13:12.628Z,0
2016-04-22T03:14:12.615Z,0
2016-04-22T03:15:13.008Z,0
2016-04-22T03:16:11.855Z,0
2016-04-22T03:17:14.669Z,0
2016-04-22T03:18:12.594Z,4
2016-04-22T03:19:12.597Z,4
2016-04-22T03:20:12.834Z,0
2016-04-22T03:21:12.649Z,4
2016-04-22T03:22:26.685Z,4
2016-04-22T03:23:26.735Z,4
2016-04-22T03:24:12.110Z,4
2016-04-22T03:25:12.582Z,8
2016-04-22T03:26:12.835Z,4
2016-04-22T03:27:12.588Z,4
2016-04-22T03:28:12.824Z,8
2016-04-22T03:29:12.781Z,12
2016-04-22T03:30:12.970Z,8
2016-04-22T03:31:12.614Z,16
2016-04-22T03:32:26.697Z,16
2016-04-22T03:33:13.212Z,20
2016-04-22T03:34:13.215Z,20
2016-04-22T03:35:12.796Z,24
2016-04-22T03:36:12.767Z,28
2016-04-22T03:37:12.802Z,36
2016-04-22T03:38:12.116Z,40
2016-04-22T03:39:12.823Z,48
2016-04-22T03:40:12.575Z,52
2016-04-22T03:41:12.594Z,64
2016-04-22T03:42:12.550Z,72
2016-04-22T03:43:12.614Z,80
2016-04-22T03:44:12.399Z,92
2016-04-22T03:45:12.995Z,108
2016-04-22T03:46:12.779Z,116
2016-04-22T03:47:12.563Z,136
2016-04-22T03:48:12.566Z,152
2016-04-22T03:49:12.380Z,168
2016-04-22T03:50:12.555Z,188
2016-04-22T03:51:12.542Z,208
2016-04-22T03:52:12.748Z,228
2016-04-22T03:53:27.051Z,260
2016-04-22T03:54:12.582Z,280
2016-04-22T03:55:12.741Z,308
2016-04-22T03:56:12.760Z,336
2016-04-22T03:57:12.762Z,364
2016-04-22T03:58:12.546Z,396
2016-04-22T03:59:12.579Z,428
2016-04-22T04:00:13.192Z,464
2016-04-22T04:01:12.538Z,496
2016-04-22T04:02:12.540Z,536
2016-04-22T04:03:12.575Z,576
2016-04-22T04:04:12.374Z,616
2016-04-22T04:05:12.580Z,656
2016-04-22T04:06:12.520Z,704
2016-04-22T04:07:12.522Z,744
2016-04-22T04:08:27.059Z,808
2016-04-22T04:09:12.513Z,844
2016-04-22T04:10:12.234Z,892
2016-04-22T04:11:12.534Z,940
2016-04-22T04:12:12.224Z,992
2016-04-22T04:13:12.508Z,1040
2016-04-22T04:14:12.541Z,1096
2016-04-22T04:15:11.857Z,1148
2016-04-22T04:16:13.157Z,1200
2016-04-22T04:18:12.708Z,1304
2016-04-22T04:19:12.758Z,1360
2016-04-22T04:20:12.542Z,1412
2016-04-22T04:21:12.513Z,1472
2016-04-22T04:22:12.938Z,1528
2016-04-22T04:23:12.518Z,1584
2016-04-22T04:24:12.590Z,1636
2016-04-22T04:26:12.658Z,1744
2016-04-22T04:27:12.232Z,1792
2016-04-22T04:28:12.231Z,1844
2016-04-22T04:29:12.920Z,1892
2016-04-22T04:30:12.735Z,1944
2016-04-22T04:31:12.939Z,1992
2016-04-22T04:32:13.002Z,2036
2016-04-22T04:33:12.765Z,2080
2016-04-22T04:34:12.789Z,2128
2016-04-22T04:35:12.766Z,2172
2016-04-22T04:36:27.094Z,2220
2016-04-22T04:37:13.001Z,2248
2016-04-22T04:38:12.787Z,2280
2016-04-22T04:39:12.776Z,2320
2016-04-22T04:40:13.000Z,2352
2016-04-22T04:41:41.165Z,2412
2016-04-22T04:42:12.821Z,2428
2016-04-22T04:43:13.216Z,2452
2016-04-22T04:44:13.282Z,2468
2016-04-22T04:45:13.035Z,2476
2016-04-22T04:46:13.022Z,2484
2016-04-22T04:47:12.759Z,2536
2016-04-22T04:48:12.778Z,2624
2016-04-22T04:49:12.985Z,2692
2016-04-22T04:50:12.754Z,2784
2016-04-22T04:52:12.978Z,2960
2016-04-22T04:53:13.028Z,3008
2016-04-22T04:54:12.797Z,3052
2016-04-22T04:55:13.236Z,3100
2016-04-22T04:56:13.177Z,3140
2016-04-22T04:57:12.773Z,3168
2016-04-22T04:58:12.791Z,3196
2016-04-22T04:59:12.763Z,3220
2016-04-22T05:00:12.812Z,3228
2016-04-22T05:01:12.534Z,3244
2016-04-22T05:02:12.771Z,3228
2016-04-22T05:03:12.976Z,3216
2016-04-22T05:04:12.792Z,3184
2016-04-22T05:05:13.045Z,3184
2016-04-22T05:06:12.798Z,3212
2016-04-22T05:07:13.207Z,3276
2016-04-22T05:08:12.756Z,3276
2016-04-22T05:09:12.618Z,3252
2016-04-22T05:10:13.090Z,3284
2016-04-22T05:11:13.140Z,3272
2016-04-22T05:12:12.955Z,3380
2016-04-22T05:13:12.801Z,3304
2016-04-22T05:15:12.760Z,3424
2016-04-22T05:16:13.513Z,3424
2016-04-22T05:17:12.500Z,3692
2016-04-22T05:18:27.096Z,3840
2016-04-22T05:19:13.209Z,3780
2016-04-22T05:20:13.305Z,4092
2016-04-22T05:22:13.248Z,3960
2016-04-22T05:23:12.782Z,3640
2016-04-22T05:24:13.190Z,3620
2016-04-22T05:25:12.865Z,3592
2016-04-22T05:26:13.039Z,3564
2016-04-22T05:27:12.761Z,3536
2016-04-22T05:28:13.405Z,3560
2016-04-22T05:29:12.767Z,3656
2016-04-22T05:30:13.019Z,3716
2016-04-22T05:31:12.788Z,3948
2016-04-22T05:32:12.994Z,4020
2016-04-22T05:33:26.855Z,3996
2016-04-22T05:34:14.733Z,4364
2016-04-22T05:35:13.299Z,4500
2016-04-22T05:36:13.769Z,4284
2016-04-22T05:37:13.335Z,4240
2016-04-22T05:38:13.072Z,4304
2016-04-22T05:40:16.156Z,4124
2016-04-22T05:41:13.407Z,4144
2016-04-22T05:42:12.880Z,3900
2016-04-22T05:43:12.991Z,3976
2016-04-22T05:44:12.948Z,4044
2016-04-22T05:45:12.919Z,4144
2016-04-22T05:46:13.140Z,4160
2016-04-22T05:47:13.034Z,4160
2016-04-22T05:48:27.052Z,4192
2016-04-22T05:49:13.226Z,4196
2016-04-22T05:50:13.276Z,4164
2016-04-22T05:51:12.981Z,4124
2016-04-22T05:52:13.015Z,4140
2016-04-22T05:53:12.784Z,4160
2016-04-22T05:54:12.786Z,4176
2016-04-22T05:55:16.492Z,4240
2016-04-22T05:56:13.198Z,4252
2016-04-22T05:57:13.686Z,4280
2016-04-22T05:58:15.813Z,4304
2016-04-22T05:59:12.942Z,4356
2016-04-22T06:00:12.959Z,4404
2016-04-22T06:01:13.228Z,4444
2016-04-22T06:02:13.574Z,4484
2016-04-22T06:03:12.858Z,4524
2016-04-22T06:04:12.220Z,4596
2016-04-22T06:05:13.145Z,4620
2016-04-22T06:06:13.085Z,4636
2016-04-22T06:07:12.963Z,4660
2016-04-22T06:08:27.216Z,4632
2016-04-22T06:09:13.031Z,4648
2016-04-22T06:10:13.063Z,4656
2016-04-22T06:11:13.051Z,4632
2016-04-22T06:12:13.101Z,4648
2016-04-22T06:13:13.229Z,4548
2016-04-22T06:14:12.528Z,4480
2016-04-22T06:15:12.797Z,4532
2016-04-22T06:16:13.267Z,4576
2016-04-22T06:17:13.692Z,4548
2016-04-22T06:18:13.992Z,4520
2016-04-22T06:19:13.120Z,4452
2016-04-22T06:20:12.544Z,4444
2016-04-22T06:21:12.203Z,4500
2016-04-22T06:22:13.175Z,4512
2016-04-22T06:23:12.927Z,4508
2016-04-22T06:24:13.226Z,4500
2016-04-22T06:25:12.979Z,4604
2016-04-22T06:26:27.123Z,4620
2016-04-22T06:27:12.985Z,4592
2016-04-22T06:28:13.191Z,4756
2016-04-22T06:29:13.006Z,4712
2016-04-22T06:30:13.289Z,4684
2016-04-22T06:31:12.934Z,4824
2016-04-22T06:32:13.139Z,4932
2016-04-22T06:33:27.392Z,4908
2016-04-22T06:34:13.239Z,4944
2016-04-22T06:35:12.788Z,5132
2016-04-22T06:36:12.338Z,5124
2016-04-22T06:37:12.841Z,4876
2016-04-22T06:38:16.139Z,4704
2016-04-22T06:39:16.017Z,4700
2016-04-22T06:40:16.144Z,4732
2016-04-22T06:41:13.397Z,4880
2016-04-22T06:42:27.025Z,5036
2016-04-22T06:43:13.262Z,4620
2016-04-22T06:44:13.140Z,4740
2016-04-22T06:45:13.315Z,4524
2016-04-22T06:46:13.380Z,4540
2016-04-22T06:47:27.960Z,4592
2016-04-22T06:48:13.323Z,4572
2016-04-22T06:49:13.435Z,4580
2016-04-22T06:50:13.391Z,4528
2016-04-22T06:51:27.237Z,4568
2016-04-22T06:52:13.193Z,4568
2016-04-22T06:53:13.539Z,4520
2016-04-22T06:54:27.355Z,4496
2016-04-22T06:55:12.856Z,4432
2016-04-22T06:56:12.391Z,4440
2016-04-22T06:57:13.097Z,4548
2016-04-22T06:58:14.178Z,4456
2016-04-22T06:59:27.212Z,4336
2016-04-22T07:00:13.746Z,4372
2016-04-22T07:02:13.016Z,4540
2016-04-22T07:03:13.097Z,4648
2016-04-22T07:04:13.256Z,4596
2016-04-22T07:05:13.806Z,4652
2016-04-22T07:06:12.902Z,4796
2016-04-22T07:07:13.030Z,5076
2016-04-22T07:08:12.845Z,6048
2016-04-22T07:09:13.082Z,6536
2016-04-22T07:10:13.319Z,6320
2016-04-22T07:11:12.916Z,6116
2016-04-22T07:12:12.841Z,6184
2016-04-22T07:13:12.359Z,7296
2016-04-22T07:14:13.111Z,9324
2016-04-22T07:15:13.146Z,7268
2016-04-22T07:16:13.257Z,6072
2016-04-22T07:17:12.885Z,4888
2016-04-22T07:18:12.857Z,4676
2016-04-22T07:19:12.874Z,4768
2016-04-22T07:20:13.112Z,4884
2016-04-22T07:22:12.867Z,6152
2016-04-22T07:23:13.276Z,7940
2016-04-22T07:24:13.092Z,7764
2016-04-22T07:25:13.047Z,6504
2016-04-22T07:26:13.081Z,6828
2016-04-22T07:27:13.521Z,8704
2016-04-22T07:28:13.133Z,9268
2016-04-22T07:29:12.776Z,5516
2016-04-22T07:30:14.123Z,4928
2016-04-22T07:31:12.923Z,4880
2016-04-22T07:32:27.004Z,4948
2016-04-22T07:33:12.912Z,4984
2016-04-22T07:34:12.946Z,4988
2016-04-22T07:35:14.997Z,4940
2016-04-22T07:36:12.952Z,4900
2016-04-22T07:37:13.158Z,4920
2016-04-22T07:38:13.130Z,4948
2016-04-22T07:39:12.975Z,5104
2016-04-22T07:41:13.169Z,6468
2016-04-22T07:42:12.952Z,8336
2016-04-22T07:44:13.442Z,7668
2016-04-22T07:45:14.304Z,6580
2016-04-22T07:46:12.963Z,6472
2016-04-22T07:47:12.982Z,5472
2016-04-22T07:48:13.577Z,5348
2016-04-22T07:49:13.174Z,5384
2016-04-22T07:50:14.255Z,5724
2016-04-22T07:51:13.242Z,6032
2016-04-22T07:52:13.182Z,6332
2016-04-22T07:53:13.013Z,7500
2016-04-22T07:54:13.218Z,10692
2016-04-22T07:55:14.362Z,12736
2016-04-22T07:56:12.990Z,8372
2016-04-22T07:57:12.993Z,6612
2016-04-22T07:58:13.199Z,7852
2016-04-22T07:59:13.030Z,6876
2016-04-22T08:00:14.814Z,6376
2016-04-22T08:02:13.225Z,7276
2016-04-22T08:03:12.883Z,7588
2016-04-22T08:04:13.496Z,8936
2016-04-22T08:05:13.234Z,11484
2016-04-22T08:06:27.360Z,12500
2016-04-22T08:08:12.553Z,9856
2016-04-22T08:09:13.228Z,9960
2016-04-22T08:10:13.216Z,11144
2016-04-22T08:12:13.064Z,7372
2016-04-22T08:13:13.099Z,7648
2016-04-22T08:14:13.069Z,8644
2016-04-22T08:15:13.057Z,7684
2016-04-22T08:16:13.513Z,7532
2016-04-22T08:17:13.405Z,6716
2016-04-22T08:18:13.049Z,7072
2016-04-22T08:19:13.052Z,6972
2016-04-22T08:20:13.071Z,7356
2016-04-22T08:21:13.510Z,8120
2016-04-22T08:22:13.263Z,8636
2016-04-22T08:23:13.297Z,11216
2016-04-22T08:24:13.081Z,13004
2016-04-22T08:26:13.165Z,17728
2016-04-22T08:27:13.354Z,18880
2016-04-22T08:28:13.123Z,17632
2016-04-22T08:29:13.329Z,15644
2016-04-22T08:30:13.144Z,12412
2016-04-22T08:31:13.115Z,11396
2016-04-22T08:32:26.696Z,10848
2016-04-22T08:33:13.120Z,13724
2016-04-22T08:34:13.155Z,17824
2016-04-22T08:35:13.361Z,16512
2016-04-22T08:36:13.128Z,14344
2016-04-22T08:37:26.757Z,14400
2016-04-22T08:38:13.400Z,14868
2016-04-22T08:39:13.511Z,12796
2016-04-22T08:40:27.077Z,13036
2016-04-22T08:41:13.392Z,14532
2016-04-22T08:42:27.255Z,18560
2016-04-22T08:43:12.898Z,21696
2016-04-22T08:44:27.478Z,18528
2016-04-22T08:45:13.419Z,16640
2016-04-22T08:46:13.156Z,15172
2016-04-22T08:47:13.440Z,15736
2016-04-22T08:48:13.411Z,16928
2016-04-22T08:49:13.446Z,15908
2016-04-22T08:50:14.932Z,13392
2016-04-22T08:51:13.201Z,11672
2016-04-22T08:52:27.296Z,16136
2016-04-22T08:53:13.238Z,19968
2016-04-22T08:54:13.427Z,20000
2016-04-22T08:55:14.383Z,17280
2016-04-22T08:56:13.246Z,18528
2016-04-22T08:57:13.217Z,20672
2016-04-22T08:58:13.875Z,18432
2016-04-22T08:59:27.347Z,18848
2016-04-22T09:00:13.022Z,18432
2016-04-22T09:01:13.243Z,18720
2016-04-22T09:02:13.246Z,18624
2016-04-22T09:03:13.358Z,19616
2016-04-22T09:04:13.470Z,18912
2016-04-22T09:05:13.926Z,16032
2016-04-22T09:07:13.290Z,14712
2016-04-22T09:08:13.497Z,16608
2016-04-22T09:09:13.281Z,16512
2016-04-22T09:10:13.861Z,13448
2016-04-22T09:11:12.833Z,13280
2016-04-22T09:12:13.350Z,15924
2016-04-22T09:13:13.572Z,13348
2016-04-22T09:15:14.640Z,15036
2016-04-22T09:16:13.409Z,16736
2016-04-22T09:17:13.380Z,17824
2016-04-22T09:18:16.289Z,16736
2016-04-22T09:19:13.432Z,17920
2016-04-22T09:20:13.747Z,15948
2016-04-22T09:21:13.375Z,13356
2016-04-22T09:22:13.596Z,14436
2016-04-22T09:23:13.606Z,13764
2016-04-22T09:24:13.656Z,13868
2016-04-22T09:25:13.830Z,15528
2016-04-22T09:26:13.817Z,15520
2016-04-22T09:27:13.414Z,14580
2016-04-22T09:28:13.478Z,14380
2016-04-22T09:29:14.717Z,12396
2016-04-22T09:30:14.672Z,11316
2016-04-22T09:31:13.158Z,9332
2016-04-22T09:32:13.678Z,9308
2016-04-22T09:33:13.461Z,10428
2016-04-22T09:34:13.166Z,13508
2016-04-22T09:35:14.717Z,12188
2016-04-22T09:36:13.486Z,12552
2016-04-22T09:37:14.113Z,12796
2016-04-22T09:38:13.460Z,10828
2016-04-22T09:39:13.728Z,10792
2016-04-22T09:40:14.122Z,10832
2016-04-22T09:41:13.608Z,12376
2016-04-22T09:42:13.908Z,13908
2016-04-22T09:43:13.583Z,12096
2016-04-22T09:44:13.522Z,10632
2016-04-22T09:45:13.525Z,8436
2016-04-22T09:46:13.560Z,6988
2016-04-22T09:47:13.781Z,6816
2016-04-22T09:48:13.987Z,7008
2016-04-22T09:49:13.568Z,7500
2016-04-22T09:50:13.571Z,8932
2016-04-22T09:51:27.666Z,12676
2016-04-22T09:52:13.826Z,15464
2016-04-22T09:53:13.624Z,17184
2016-04-22T09:54:13.581Z,14076
2016-04-22T09:55:13.599Z,10732
2016-04-22T09:56:14.196Z,7752
2016-04-22T09:57:13.480Z,6384
2016-04-22T09:58:13.623Z,6084
2016-04-22T09:59:13.626Z,6284
2016-04-22T10:00:27.706Z,7212
2016-04-22T10:01:13.834Z,8140
2016-04-22T10:02:13.884Z,8228
2016-04-22T10:03:13.651Z,6504
2016-04-22T10:04:13.655Z,6780
2016-04-22T10:05:14.391Z,7348
2016-04-22T10:06:27.770Z,8588
2016-04-22T10:07:13.725Z,9840
2016-04-22T10:13:45.821Z,6956
2016-04-22T10:14:46.683Z,6376
2016-04-22T10:15:46.374Z,6524
2016-04-22T10:16:46.361Z,7020
2016-04-22T10:17:46.379Z,8188
2016-04-22T10:18:46.585Z,9492
2016-04-22T10:19:46.401Z,10352
2016-04-22T10:20:46.404Z,9876
2016-04-22T10:21:46.406Z,9036
2016-04-22T10:22:46.455Z,8936
2016-04-22T10:23:46.114Z,7500
2016-04-22T10:24:46.820Z,6152
2016-04-22T10:25:46.620Z,5784
2016-04-22T10:26:46.403Z,5908
2016-04-22T10:27:46.625Z,6136
2016-04-22T10:28:45.675Z,6228
2016-04-22T10:29:46.474Z,6004
2016-04-22T10:30:46.476Z,5764
2016-04-22T10:31:46.479Z,5792
2016-04-22T10:32:46.467Z,6156
2016-04-22T10:34:00.017Z,6332
2016-04-22T10:34:46.723Z,6116
2016-04-22T10:35:46.725Z,5936
2016-04-22T10:36:46.524Z,5788
2016-04-22T10:37:46.527Z,5780
2016-04-22T10:38:46.545Z,5712
2016-04-22T10:39:46.501Z,5688
2016-04-22T10:41:00.832Z,5696
2016-04-22T10:41:46.272Z,5664
2016-04-22T10:42:46.572Z,5612
2016-04-22T10:43:46.762Z,5596
2016-04-22T10:44:46.608Z,5240
2016-04-22T10:45:46.549Z,5176
2016-04-22T10:46:46.816Z,5080
2016-04-22T10:47:46.569Z,5068
2016-04-22T10:48:46.760Z,5060
2016-04-22T10:49:46.559Z,5128
2016-04-22T10:50:46.796Z,5212
2016-04-22T10:51:46.626Z,5280
2016-04-22T10:53:00.895Z,5344
2016-04-22T10:53:46.585Z,5396
2016-04-22T10:54:46.791Z,5464
2016-04-22T10:55:46.840Z,5524
2016-04-22T10:56:46.812Z,5556
2016-04-22T10:57:46.878Z,5704
2016-04-22T10:58:46.630Z,5816
2016-04-22T10:59:46.523Z,5536
2016-04-22T11:00:46.651Z,5220
2016-04-22T11:02:46.656Z,5040
2016-04-22T11:03:46.675Z,5028
2016-04-22T11:04:46.692Z,5064
2016-04-22T11:05:46.212Z,5132
2016-04-22T11:06:46.684Z,5176
2016-04-22T11:08:01.014Z,5196
2016-04-22T11:08:46.688Z,5188
2016-04-22T11:09:46.675Z,5172
2016-04-22T11:10:46.709Z,5144
2016-04-22T11:11:46.758Z,5196
2016-04-22T11:12:46.714Z,5276
2016-04-22T11:13:46.967Z,5332
2016-04-22T11:14:46.939Z,5324
2016-04-22T11:15:46.988Z,5308
2016-04-22T11:16:46.757Z,5316
2016-04-22T11:17:46.743Z,5344
2016-04-22T11:18:46.746Z,5400
2016-04-22T11:19:46.983Z,5464
2016-04-22T11:20:47.018Z,5424
2016-04-22T11:21:46.013Z,5368
2016-04-22T11:22:46.451Z,5320
2016-04-22T11:23:46.767Z,5332
2016-04-22T11:24:46.989Z,5372
2016-04-22T11:25:46.803Z,5404
2016-04-22T11:26:46.822Z,5444
2016-04-22T11:27:46.809Z,5440
2016-04-22T11:28:47.078Z,5436
2016-04-22T11:29:47.361Z,5364
2016-04-22T11:31:01.114Z,5288
2016-04-22T11:31:47.023Z,5256
2016-04-22T11:32:47.104Z,5252
2016-04-22T11:33:46.825Z,5248
2016-04-22T11:34:46.874Z,5208
2016-04-22T11:35:47.237Z,5204
2016-04-22T11:36:46.411Z,5232
2016-04-22T11:37:47.054Z,5228
2016-04-22T11:38:46.729Z,5224
2016-04-22T11:39:47.075Z,5256
2016-04-22T11:40:46.938Z,5284
2016-04-22T11:41:46.893Z,5280
2016-04-22T11:42:46.912Z,5280
2016-04-22T11:44:01.415Z,5264
2016-04-22T11:44:46.902Z,5272
2016-04-22T11:45:46.935Z,5268
2016-04-22T11:46:46.906Z,5256
2016-04-22T11:47:46.940Z,5216
2016-04-22T11:48:46.443Z,5212
2016-04-22T11:49:46.946Z,5204
2016-04-22T11:50:47.183Z,5208
2016-04-22T11:51:47.154Z,5196
2016-04-22T11:52:46.985Z,5140
2016-04-22T11:53:47.192Z,5100
2016-04-22T11:55:01.303Z,5076
2016-04-22T11:55:47.009Z,5088
2016-04-22T11:56:47.183Z,5100
2016-04-22T11:57:47.015Z,5136
2016-04-22T11:58:47.048Z,5160
2016-04-22T11:59:47.223Z,5184
2016-04-22T12:00:47.226Z,5200
2016-04-22T12:01:47.025Z,5232
2016-04-22T12:02:47.059Z,5228
2016-04-22T12:03:47.297Z,5220
2016-04-22T12:04:47.064Z,5228
2016-04-22T12:05:47.130Z,5220
2016-04-22T12:06:47.742Z,5208
2016-04-22T12:08:47.107Z,5176
2016-04-22T12:09:47.110Z,5164
2016-04-22T12:10:47.127Z,5172
2016-04-22T12:11:47.146Z,5208
2016-04-22T12:12:47.132Z,5228
2016-04-22T12:13:47.182Z,5244
2016-04-22T12:14:47.138Z,5236
2016-04-22T12:15:47.126Z,5220
2016-04-22T12:16:47.285Z,5176
2016-04-22T12:17:47.319Z,5136
2016-04-22T12:18:47.274Z,5132
2016-04-22T12:19:48.591Z,5160
2016-04-22T12:20:47.406Z,5168
2016-04-22T12:21:47.503Z,5196
2016-04-22T12:22:46.693Z,5212
2016-04-22T12:23:46.914Z,5220
2016-04-22T12:24:47.183Z,5212
2016-04-22T12:25:47.200Z,5204
2016-04-22T12:26:47.203Z,5248
2016-04-22T12:27:47.253Z,5276
2016-04-22T12:28:47.209Z,5288
2016-04-22T12:29:47.447Z,5280
2016-04-22T12:30:47.683Z,5292
2016-04-22T12:31:47.671Z,5324
2016-04-22T12:32:47.485Z,5348
2016-04-22T12:34:01.394Z,5372
2016-04-22T12:34:47.288Z,5384
2016-04-22T12:35:47.525Z,5384
2016-04-22T12:36:47.528Z,5372
2016-04-22T12:38:47.549Z,5328
2016-04-22T12:39:47.364Z,5292
2016-04-22T12:40:47.366Z,5268
2016-04-22T12:41:47.369Z,5248
2016-04-22T12:43:01.434Z,5188
2016-04-22T12:43:47.374Z,5152
2016-04-22T12:44:47.596Z,5104
2016-04-22T12:45:47.379Z,5080
2016-04-22T12:46:47.398Z,5100
2016-04-22T12:47:47.431Z,5148
2016-04-22T12:48:47.622Z,5184
2016-04-22T12:49:47.640Z,5240
2016-04-22T12:50:47.456Z,5296
2016-04-22T12:51:47.427Z,5352
2016-04-22T12:52:47.274Z,5392
2016-04-22T12:53:47.714Z,5428
2016-04-22T12:55:01.794Z,5464
2016-04-22T12:55:47.219Z,5460
2016-04-22T12:56:47.691Z,5464
2016-04-22T12:57:47.647Z,5456
2016-04-22T12:58:47.525Z,5416
2016-04-22T12:59:47.559Z,5380
2016-04-22T13:00:47.014Z,5356
2016-04-22T13:01:47.719Z,5340
2016-04-22T13:03:47.850Z,5324
2016-04-22T13:04:47.775Z,5312
2016-04-22T13:05:47.610Z,5304
2016-04-22T13:06:47.629Z,5284
2016-04-22T13:08:01.694Z,5260
2016-04-22T13:08:47.618Z,5260
2016-04-22T13:09:48.059Z,5288
2016-04-22T13:11:01.749Z,5328
2016-04-22T13:11:47.643Z,5360
2016-04-22T13:13:01.739Z,5436
2016-04-22T13:13:47.648Z,5472
2016-04-22T13:14:47.854Z,5512
2016-04-22T13:16:01.794Z,5548
2016-04-22T13:17:01.801Z,5592
2016-04-22T13:17:47.678Z,5612
2016-04-22T13:18:48.120Z,5640
2016-04-22T13:19:47.903Z,5680
2016-04-22T13:20:47.702Z,5644
2016-04-22T13:21:47.725Z,5652
2016-04-22T13:22:47.744Z,5672
2016-04-22T13:23:47.919Z,5688
2016-04-22T13:24:47.952Z,5688
2016-04-22T13:25:47.768Z,5676
2016-04-22T13:26:47.786Z,5684
2016-04-22T13:27:48.039Z,5680
2016-04-22T13:28:47.858Z,5640
2016-04-22T13:30:02.467Z,5608
2016-04-22T13:31:02.201Z,5564
2016-04-22T13:31:48.247Z,5548
2016-04-22T13:32:48.027Z,5540
2016-04-22T13:34:48.124Z,5572
2016-04-22T13:35:48.128Z,5608
2016-04-22T13:36:48.380Z,5644
2016-04-22T13:37:48.164Z,5672
2016-04-22T13:38:48.412Z,5696
2016-04-22T13:40:02.529Z,5728
2016-04-22T13:40:48.445Z,5744
2016-04-22T13:41:48.250Z,5728
2016-04-22T13:42:48.430Z,5708
2016-04-22T13:43:48.280Z,5716
2016-04-22T13:44:48.020Z,5732
2016-04-22T13:45:49.133Z,5748
2016-04-22T13:46:48.310Z,5764
2016-04-22T13:47:48.737Z,5768
2016-04-22T13:48:48.365Z,5780
2016-04-22T13:49:48.555Z,5796
2016-04-22T13:50:47.622Z,5788
2016-04-22T13:51:48.532Z,5796
2016-04-22T13:53:02.441Z,5824
2016-04-22T13:53:48.367Z,5848
2016-04-22T13:54:48.589Z,5884
2016-04-22T13:56:02.889Z,5916
2016-04-22T13:56:48.406Z,5936
2016-04-22T13:57:48.410Z,5968
2016-04-22T13:58:48.459Z,6012
2016-04-22T13:59:48.416Z,6036
2016-04-22T14:00:48.434Z,6052
2016-04-22T14:01:48.656Z,6064
2016-04-22T14:03:02.987Z,6100
2016-04-22T14:03:48.911Z,6124
2016-04-22T14:04:48.492Z,6148
2016-04-22T14:05:48.744Z,6144
2016-04-22T14:06:49.106Z,6144
2016-04-22T14:07:48.766Z,6140
2016-04-22T14:08:48.925Z,6136